Terminal Aerodrome Forecast
Issued by NWS

Home | Current Version | Previous Version | Text Only | Print | Product List | Glossary On
Versions: 1 2 3 4 5 6 7 8 9 10 11 12 13 14 15 16 17 18 19 20 21 22 23 24 25 26
000
FTUS45 KGGW 041700
TAFGDV
TAF
KGDV 041720Z 0418/0518 12013KT P6SM BKN150
     FM042130 12013KT P6SM VCTS BKN100CB
     FM050000 12008KT 6SM SHRA BKN080
     FM050300 24008KT P6SM -SHRA BKN070
     FM051200 VRB05KT P6SM FEW170 SCT240
      AMD NOT SKED=

USA.gov is the U.S. government's official web portal to all federal, state and local government web resources and services.